Terminal Aerodrome Forecast
Issued by NWS Rapid City, SD

Home | Current Version | Previous Version | Graphics & Text | Print | Product List | Glossary On
Versions: 1 2 3 4 5 6 7 8 9 10 11 12 13 14 15 16 17 18 19 20
000
FTUS43 KUNR 242320
TAFRAP
TAF
KRAP 242320Z 2500/2524 10006KT P6SM -SHRA OVC080
      TEMPO 2500/2502 -TSRA OVC040CB
     FM250200 18010KT P6SM VCSH OVC060
     FM251500 32015G25KT P6SM SCT090=

USA.gov is the U.S. government's official web portal to all federal, state and local government web resources and services.